createdAt,value
2022-10-12T00:01:08.286Z,6.24
2022-10-12T00:03:36.844Z,6.27
2022-10-12T00:06:08.754Z,6.25
2022-10-12T00:08:37.416Z,6.17
2022-10-12T00:11:06.143Z,6.20
2022-10-12T00:13:34.237Z,6.20
2022-10-12T00:16:07.187Z,6.15
2022-10-12T00:18:35.640Z,6.19
2022-10-12T00:21:09.570Z,6.12
2022-10-12T00:23:38.293Z,6.18
2022-10-12T00:26:09.354Z,6.17
2022-10-12T00:28:37.019Z,6.19
2022-10-12T00:31:13.094Z,6.18
2022-10-12T00:33:41.213Z,6.14
2022-10-12T00:36:30.159Z,6.27
2022-10-12T00:38:57.729Z,6.22
2022-10-12T00:41:29.429Z,6.15
2022-10-12T00:43:58.772Z,6.20
2022-10-12T00:46:33.333Z,6.22
2022-10-12T00:49:17.115Z,6.23
2022-10-12T00:51:50.618Z,6.27
2022-10-12T00:54:24.998Z,6.30
2022-10-12T00:56:54.810Z,6.27
2022-10-12T00:59:28.598Z,6.25
2022-10-12T01:01:56.417Z,6.30
2022-10-12T01:04:24.687Z,6.30
2022-10-12T01:06:53.011Z,6.30
2022-10-12T01:09:21.549Z,6.25
2022-10-12T01:11:49.514Z,6.22
2022-10-12T01:14:17.434Z,6.23
2022-10-12T01:16:54.531Z,6.28
2022-10-12T01:19:43.198Z,6.30
2022-10-12T01:22:18.263Z,6.23
2022-10-12T01:24:53.070Z,6.22
2022-10-12T01:27:26.281Z,6.21
2022-10-12T01:30:05.864Z,6.22
2022-10-12T01:32:45.099Z,6.19
2022-10-12T01:35:26.837Z,6.23
2022-10-12T01:38:42.766Z,6.29
2022-10-12T01:41:15.814Z,6.19
2022-10-12T01:43:45.172Z,6.09
2022-10-12T01:46:18.250Z,6.13
2022-10-12T01:48:49.174Z,6.05
2022-10-12T01:51:23.631Z,6.09
2022-10-12T01:54:14.204Z,6.04
2022-10-12T01:57:12.353Z,6.11
2022-10-12T02:00:02.814Z,6.04
2022-10-12T02:02:33.022Z,6.00
2022-10-12T02:05:44.698Z,6.10
2022-10-12T02:08:34.023Z,6.10
2022-10-12T02:11:16.661Z,6.04
2022-10-12T02:13:48.412Z,5.98
2022-10-12T02:16:20.032Z,6.00
2022-10-12T02:18:53.118Z,5.95
2022-10-12T02:21:29.440Z,5.96
2022-10-12T02:24:01.072Z,5.97
2022-10-12T02:26:32.180Z,5.97
2022-10-12T02:29:03.875Z,5.90
2022-10-12T02:31:47.768Z,5.98
2022-10-12T02:34:19.038Z,5.84
2022-10-12T02:37:15.336Z,5.91
2022-10-12T02:39:54.338Z,5.83
2022-10-12T02:42:46.505Z,5.88
2022-10-12T02:45:23.594Z,5.81
2022-10-12T02:47:54.415Z,5.80
2022-10-12T02:50:24.723Z,5.84
2022-10-12T02:52:53.338Z,5.81
2022-10-12T02:55:20.839Z,5.76
2022-10-12T02:57:48.348Z,5.72
2022-10-12T03:00:16.515Z,5.74
2022-10-12T03:02:44.036Z,5.73
2022-10-12T03:05:11.440Z,5.69
2022-10-12T03:07:39.198Z,5.64
2022-10-12T03:10:07.287Z,5.71
2022-10-12T03:12:34.742Z,5.65
2022-10-12T03:15:02.162Z,5.70
2022-10-12T03:17:31.048Z,5.67
2022-10-12T03:19:58.446Z,5.68
2022-10-12T03:22:25.934Z,5.62
2022-10-12T03:24:53.462Z,5.68
2022-10-12T03:27:20.991Z,5.74
2022-10-12T03:29:48.486Z,5.67
2022-10-12T03:32:16.179Z,5.69
2022-10-12T03:34:43.726Z,5.62
2022-10-12T03:37:11.296Z,5.65
2022-10-12T03:39:38.801Z,5.69
2022-10-12T03:42:06.252Z,5.62
2022-10-12T03:44:33.694Z,5.66
2022-10-12T03:47:01.107Z,5.66
2022-10-12T03:49:28.836Z,5.61
2022-10-12T03:51:56.331Z,5.71
2022-10-12T03:54:26.060Z,5.65
2022-10-12T03:56:53.752Z,5.74
2022-10-12T03:59:21.182Z,5.77
2022-10-12T04:01:49.000Z,5.80
2022-10-12T04:04:16.670Z,5.83
2022-10-12T04:06:46.353Z,5.76
2022-10-12T04:09:13.793Z,5.85
2022-10-12T04:11:41.241Z,5.88
2022-10-12T04:14:08.782Z,5.91
2022-10-12T04:16:36.200Z,5.98
2022-10-12T04:19:03.715Z,6.10
2022-10-12T04:21:31.990Z,6.22
2022-10-12T04:23:59.398Z,6.33
2022-10-12T04:26:26.972Z,6.44
2022-10-12T04:28:54.461Z,6.59
2022-10-12T04:31:21.994Z,6.65
2022-10-12T04:33:49.473Z,6.83
2022-10-12T04:36:16.965Z,6.94
2022-10-12T04:38:44.467Z,7.03
2022-10-12T04:41:12.017Z,7.19
2022-10-12T04:43:39.432Z,7.33
2022-10-12T04:46:07.083Z,7.46
2022-10-12T04:48:34.487Z,7.65
2022-10-12T04:51:02.034Z,7.94
2022-10-12T04:53:29.779Z,8.26
2022-10-12T04:55:57.824Z,8.51
2022-10-12T04:58:25.313Z,8.78
2022-10-12T05:00:52.884Z,9.10
2022-10-12T05:03:20.396Z,9.28
2022-10-12T05:05:47.895Z,9.53
2022-10-12T05:08:15.530Z,9.82
2022-10-12T05:10:43.143Z,10.03
2022-10-12T05:13:10.556Z,10.22
2022-10-12T05:15:38.051Z,10.36
2022-10-12T05:18:05.683Z,10.41
2022-10-12T05:20:33.252Z,10.42
2022-10-12T05:23:00.845Z,10.42
2022-10-12T05:25:29.758Z,10.41
2022-10-12T05:27:57.516Z,10.34
2022-10-12T05:30:24.925Z,10.21
2022-10-12T05:32:52.502Z,10.20
2022-10-12T05:35:23.180Z,10.32
2022-10-12T05:37:50.738Z,10.61
2022-10-12T05:40:18.351Z,10.94
2022-10-12T05:42:46.062Z,11.17
2022-10-12T05:45:13.594Z,11.41
2022-10-12T05:47:41.641Z,11.62
2022-10-12T05:50:09.734Z,11.91
2022-10-12T05:52:37.564Z,12.33
2022-10-12T05:55:05.702Z,12.53
2022-10-12T05:57:33.278Z,12.59
2022-10-12T06:00:00.777Z,12.50
2022-10-12T06:02:28.346Z,12.39
2022-10-12T06:04:55.772Z,12.66
2022-10-12T06:07:23.315Z,12.99
2022-10-12T06:09:51.189Z,13.11
2022-10-12T06:12:18.710Z,12.92
2022-10-12T06:14:46.364Z,12.64
2022-10-12T06:17:13.814Z,12.60
2022-10-12T06:19:41.199Z,12.69
2022-10-12T06:22:08.684Z,12.60
2022-10-12T06:24:36.200Z,12.83
2022-10-12T06:27:03.900Z,13.37
2022-10-12T06:29:31.448Z,14.08
2022-10-12T06:31:59.378Z,14.85
2022-10-12T06:34:26.798Z,15.66
2022-10-12T06:36:57.120Z,16.42
2022-10-12T06:39:28.379Z,16.93
2022-10-12T06:41:55.816Z,17.38
2022-10-12T06:44:23.600Z,17.80
2022-10-12T06:46:51.056Z,18.03
2022-10-12T06:49:18.508Z,18.14
2022-10-12T06:51:46.226Z,17.69
2022-10-12T06:54:13.735Z,17.05
2022-10-12T06:56:41.403Z,16.35
2022-10-12T06:59:11.037Z,15.97
2022-10-12T07:01:39.008Z,15.58
2022-10-12T07:04:06.712Z,15.23
2022-10-12T07:06:34.174Z,14.91
2022-10-12T07:09:04.046Z,14.62
2022-10-12T07:11:31.584Z,14.48
2022-10-12T07:13:59.037Z,14.46
2022-10-12T07:16:26.524Z,14.40
2022-10-12T07:18:54.075Z,14.30
2022-10-12T07:21:24.551Z,14.18
2022-10-12T07:23:52.968Z,14.27
2022-10-12T07:26:20.513Z,14.30
2022-10-12T07:28:48.709Z,14.37
2022-10-12T07:31:16.237Z,14.48
2022-10-12T07:33:43.691Z,14.73
2022-10-12T07:36:17.289Z,14.92
2022-10-12T07:38:49.176Z,15.53
2022-10-12T07:41:17.801Z,15.43
2022-10-12T07:46:43.173Z,16.25
2022-10-12T07:53:19.213Z,17.61
2022-10-12T07:57:00.099Z,17.72
2022-10-12T08:00:16.354Z,17.33
2022-10-12T08:02:44.015Z,17.17
2022-10-12T08:05:38.162Z,17.15
2022-10-12T08:09:19.676Z,16.85
2022-10-12T08:12:02.499Z,16.70
2022-10-12T08:14:42.092Z,16.68
2022-10-12T08:17:10.073Z,16.67
2022-10-12T08:20:04.644Z,16.66
2022-10-12T08:22:50.712Z,16.62
2022-10-12T08:25:24.296Z,16.64
2022-10-12T08:28:10.157Z,16.47
2022-10-12T08:30:39.285Z,16.36
2022-10-12T08:33:10.274Z,16.26
2022-10-12T08:35:39.253Z,16.11
2022-10-12T08:38:07.910Z,15.91
2022-10-12T08:40:45.868Z,15.77
2022-10-12T08:43:22.206Z,15.81
2022-10-12T08:46:00.886Z,15.72
2022-10-12T08:48:31.111Z,15.46
2022-10-12T08:51:03.297Z,15.46
2022-10-12T08:53:50.864Z,15.63
2022-10-12T08:56:19.164Z,15.94
2022-10-12T08:58:48.102Z,15.72
2022-10-12T09:01:30.698Z,15.79
2022-10-12T09:04:29.690Z,16.24
2022-10-12T09:07:12.445Z,16.52
2022-10-12T09:10:17.848Z,17.19
2022-10-12T09:12:55.759Z,17.42
2022-10-12T09:15:29.204Z,17.49
2022-10-12T09:17:59.726Z,17.94
2022-10-12T09:20:30.793Z,18.46
2022-10-12T09:23:22.366Z,18.74
2022-10-12T09:25:50.715Z,18.88
2022-10-12T09:28:42.128Z,19.01
2022-10-12T09:31:09.661Z,18.72
2022-10-12T09:33:58.839Z,18.68
2022-10-12T09:36:33.839Z,18.28
2022-10-12T09:39:05.292Z,18.10
2022-10-12T09:41:40.951Z,17.98
2022-10-12T09:44:16.937Z,17.88
2022-10-12T09:46:55.390Z,17.78
2022-10-12T09:49:51.815Z,17.93
2022-10-12T09:52:27.855Z,17.93
2022-10-12T09:55:05.913Z,18.09
2022-10-12T09:57:39.932Z,17.98
2022-10-12T10:00:25.214Z,17.99
2022-10-12T10:02:53.661Z,17.65
2022-10-12T10:05:24.453Z,17.63
2022-10-12T10:07:52.210Z,17.53
2022-10-12T10:10:29.271Z,17.37
2022-10-12T10:13:03.061Z,17.20
2022-10-12T10:15:41.410Z,17.15
2022-10-12T10:26:26.599Z,17.17
2022-10-12T10:28:58.808Z,17.27
2022-10-12T10:31:29.367Z,17.52
2022-10-12T10:42:34.904Z,17.30
2022-10-12T10:45:07.340Z,16.99
2022-10-12T10:47:47.080Z,16.84
2022-10-12T10:50:27.452Z,16.83
2022-10-12T10:52:59.452Z,16.84
2022-10-12T10:55:44.611Z,17.37
2022-10-12T10:58:51.269Z,18.92
2022-10-12T11:01:45.423Z,21.91
2022-10-12T11:04:23.070Z,23.65
2022-10-12T11:06:54.009Z,24.54
2022-10-12T11:09:31.701Z,26.15
2022-10-12T11:12:08.850Z,27.49
2022-10-12T11:14:48.991Z,27.83
2022-10-12T11:17:27.098Z,28.24
2022-10-12T11:20:37.637Z,29.61
2022-10-12T11:23:42.348Z,30.58
2022-10-12T11:26:38.539Z,30.88
2022-10-12T11:29:06.652Z,29.42
2022-10-12T11:31:38.232Z,27.59
2022-10-12T11:34:13.297Z,25.61
2022-10-12T11:36:55.803Z,23.74
2022-10-12T11:39:37.002Z,22.00
2022-10-12T11:42:27.099Z,20.85
2022-10-12T11:44:55.152Z,20.00
2022-10-12T11:47:22.545Z,19.40
2022-10-12T11:49:57.925Z,18.89
2022-10-12T11:52:36.290Z,18.24
2022-10-12T11:55:42.918Z,17.81
2022-10-12T11:58:24.406Z,17.09
2022-10-12T12:01:07.695Z,16.75
2022-10-12T12:04:41.087Z,16.41
2022-10-12T12:07:38.224Z,16.13
2022-10-12T12:10:26.731Z,15.87
2022-10-12T12:13:18.000Z,15.59
2022-10-12T12:15:49.738Z,15.20
2022-10-12T12:18:28.050Z,14.93
2022-10-12T12:21:10.398Z,14.66
2022-10-12T12:23:49.913Z,14.35
2022-10-12T12:26:19.293Z,14.21
2022-10-12T12:29:09.874Z,14.12
2022-10-12T12:31:38.107Z,13.80
2022-10-12T12:34:17.371Z,13.73
2022-10-12T12:36:51.655Z,13.49
2022-10-12T12:39:32.806Z,13.39
2022-10-12T12:42:09.376Z,13.15
2022-10-12T12:44:42.983Z,12.91
2022-10-12T12:50:02.017Z,12.52
2022-10-12T12:52:35.020Z,12.41
2022-10-12T12:55:14.535Z,12.39
2022-10-12T12:58:00.682Z,12.21
2022-10-12T13:01:06.589Z,12.16
2022-10-12T13:03:48.724Z,12.13
2022-10-12T13:06:30.218Z,12.07
2022-10-12T13:09:20.959Z,12.07
2022-10-12T13:11:57.025Z,12.00
2022-10-12T13:14:47.126Z,11.95
2022-10-12T13:17:32.207Z,11.81
2022-10-12T13:20:06.517Z,11.76
2022-10-12T13:22:35.555Z,11.74
2022-10-12T13:25:07.161Z,11.67
2022-10-12T13:27:46.677Z,11.64
2022-10-12T13:30:32.756Z,11.71
2022-10-12T13:33:10.066Z,11.70
2022-10-12T13:35:55.702Z,11.87
2022-10-12T13:38:26.422Z,11.59
2022-10-12T13:41:08.569Z,11.56
2022-10-12T13:43:43.925Z,11.36
2022-10-12T13:46:35.810Z,11.34
2022-10-12T13:49:04.359Z,11.23
2022-10-12T13:51:32.046Z,11.15
2022-10-12T13:53:59.555Z,11.01
2022-10-12T13:56:29.085Z,10.88
2022-10-12T13:59:05.586Z,10.84
2022-10-12T14:01:51.731Z,10.87
2022-10-12T14:04:19.528Z,10.83
2022-10-12T14:06:53.018Z,10.78
2022-10-12T14:09:24.158Z,10.74
2022-10-12T14:11:53.520Z,10.73
2022-10-12T14:14:30.110Z,10.70
2022-10-12T14:16:57.767Z,10.65
2022-10-12T14:19:40.258Z,10.64
2022-10-12T14:22:08.351Z,10.61
2022-10-12T14:24:37.119Z,10.56
2022-10-12T14:27:06.650Z,10.55
2022-10-12T14:29:45.465Z,10.59
2022-10-12T14:32:26.528Z,10.59
2022-10-12T14:35:27.601Z,10.53
2022-10-12T14:38:41.199Z,10.42
2022-10-12T14:41:36.410Z,10.47
2022-10-12T14:44:10.879Z,10.30
2022-10-12T14:46:41.883Z,10.28
2022-10-12T14:49:18.591Z,10.31
2022-10-12T14:51:47.870Z,10.25
2022-10-12T14:54:15.613Z,10.20
2022-10-12T14:56:43.082Z,10.17
2022-10-12T15:07:16.224Z,10.21
2022-10-12T15:09:44.615Z,10.11
2022-10-12T15:12:14.493Z,10.03
2022-10-12T15:14:43.051Z,10.05
2022-10-12T15:17:39.702Z,10.00
2022-10-12T15:20:10.964Z,9.93
2022-10-12T15:22:39.126Z,9.87
2022-10-12T15:25:18.999Z,9.87
2022-10-12T15:27:46.568Z,9.85
2022-10-12T15:30:14.928Z,9.81
2022-10-12T15:32:42.813Z,9.74
2022-10-12T15:35:18.934Z,9.73
2022-10-12T15:37:47.173Z,9.64
2022-10-12T15:40:16.384Z,9.67
2022-10-12T15:42:44.209Z,9.63
2022-10-12T15:45:27.054Z,9.64
2022-10-12T15:47:55.123Z,9.51
2022-10-12T15:50:29.075Z,9.45
2022-10-12T15:52:57.133Z,9.39
2022-10-12T15:55:27.704Z,9.35
2022-10-12T15:57:56.394Z,9.25
2022-10-12T16:00:27.338Z,9.23
2022-10-12T16:02:56.683Z,9.14
2022-10-12T16:05:33.156Z,9.17
2022-10-12T16:08:01.842Z,9.11
2022-10-12T16:10:33.099Z,9.05
2022-10-12T16:13:01.240Z,9.01
2022-10-12T16:15:33.047Z,8.98
2022-10-12T16:18:02.331Z,8.84
2022-10-12T16:20:31.481Z,8.84
2022-10-12T16:23:00.828Z,8.87
2022-10-12T16:25:28.484Z,8.78
2022-10-12T16:27:57.528Z,8.74
2022-10-12T16:30:26.184Z,8.78
2022-10-12T16:32:54.430Z,8.75
2022-10-12T16:35:21.960Z,8.72
2022-10-12T16:37:49.786Z,8.65
2022-10-12T16:40:17.451Z,8.61
2022-10-12T16:42:44.961Z,8.52
2022-10-12T16:45:13.211Z,8.56
2022-10-12T16:47:42.689Z,8.47
2022-10-12T16:50:10.711Z,8.44
2022-10-12T16:52:38.461Z,8.47
2022-10-12T16:55:06.704Z,8.43
2022-10-12T16:57:34.233Z,8.38
2022-10-12T17:00:02.003Z,8.35
2022-10-12T17:02:31.588Z,8.36
2022-10-12T17:04:59.071Z,8.38
2022-10-12T17:07:26.991Z,8.34
2022-10-12T17:09:57.579Z,8.35
2022-10-12T17:12:26.350Z,8.35
2022-10-12T17:14:54.224Z,8.33
2022-10-12T17:17:21.918Z,8.32
2022-10-12T17:19:49.471Z,8.27
2022-10-12T17:22:17.533Z,8.22
2022-10-12T17:24:45.174Z,8.25
2022-10-12T17:27:14.655Z,8.19
2022-10-12T17:29:42.911Z,8.21
2022-10-12T17:32:11.057Z,8.24
2022-10-12T17:34:43.303Z,8.21
2022-10-12T17:37:13.958Z,8.20
2022-10-12T17:39:44.163Z,8.17
2022-10-12T17:42:14.349Z,8.25
2022-10-12T17:44:42.149Z,8.24
2022-10-12T17:47:09.744Z,8.32
2022-10-12T17:49:37.386Z,8.32
2022-10-12T17:52:05.120Z,8.33
2022-10-12T17:54:33.046Z,8.36
2022-10-12T17:57:00.572Z,8.37
2022-10-12T17:59:28.250Z,8.37
2022-10-12T18:01:55.819Z,8.43
2022-10-12T18:04:23.352Z,8.45
2022-10-12T18:06:51.165Z,8.40
2022-10-12T18:09:20.902Z,8.45
2022-10-12T18:11:48.923Z,8.46
2022-10-12T18:14:16.490Z,8.46
2022-10-12T18:16:44.036Z,8.48
2022-10-12T18:19:11.818Z,8.46
2022-10-12T18:21:40.149Z,8.51
2022-10-12T18:24:16.475Z,8.48
2022-10-12T18:26:46.103Z,8.45
2022-10-12T18:29:16.457Z,8.47
2022-10-12T18:31:44.045Z,8.50
2022-10-12T18:34:11.743Z,8.49
2022-10-12T18:36:40.888Z,8.57
2022-10-12T18:39:08.839Z,8.58
2022-10-12T18:41:36.540Z,8.59
2022-10-12T18:44:05.696Z,8.59
2022-10-12T18:46:35.389Z,8.52
2022-10-12T18:49:05.470Z,8.50
2022-10-12T18:51:35.253Z,8.50
2022-10-12T18:54:03.790Z,8.45
2022-10-12T18:56:32.895Z,8.45
2022-10-12T18:59:01.022Z,8.46
2022-10-12T19:01:30.260Z,8.51
2022-10-12T19:03:59.956Z,8.55
2022-10-12T19:06:34.204Z,8.69
2022-10-12T19:09:02.542Z,8.75
2022-10-12T19:11:49.428Z,8.81
2022-10-12T19:23:43.479Z,9.09
2022-10-12T19:42:38.534Z,9.12
2022-10-12T19:45:41.143Z,9.07
2022-10-12T19:48:09.519Z,9.09
2022-10-12T19:50:37.075Z,9.06
2022-10-12T19:53:05.075Z,9.12
2022-10-12T19:55:34.124Z,9.07
2022-10-12T19:58:16.962Z,9.23
2022-10-12T20:00:44.512Z,9.18
2022-10-12T20:03:12.355Z,9.17
2022-10-12T20:09:07.591Z,9.18
2022-10-12T20:11:35.626Z,9.16
2022-10-12T20:14:03.404Z,9.18
2022-10-12T20:16:34.822Z,9.15
2022-10-12T20:19:04.324Z,9.21
2022-10-12T20:21:31.835Z,9.21
2022-10-12T20:23:59.414Z,9.22
2022-10-12T20:26:27.412Z,9.21
2022-10-12T20:28:55.030Z,9.18
2022-10-12T20:31:27.561Z,9.21
2022-10-12T20:33:56.196Z,9.17
2022-10-12T20:36:26.429Z,9.16
2022-10-12T20:38:54.160Z,9.16
2022-10-12T20:41:22.019Z,9.12
2022-10-12T20:43:49.729Z,9.10
2022-10-12T20:46:18.198Z,9.17
2022-10-12T20:48:46.332Z,9.13
2022-10-12T20:51:27.707Z,9.19
2022-10-12T20:53:58.968Z,9.16
2022-10-12T20:56:28.402Z,9.17
2022-10-12T20:58:56.147Z,9.16
2022-10-12T21:01:25.974Z,9.24
2022-10-12T21:03:54.210Z,9.25
2022-10-12T21:06:23.552Z,9.24
2022-10-12T21:08:56.290Z,9.29
2022-10-12T21:11:24.766Z,9.27
2022-10-12T21:13:52.408Z,9.27
2022-10-12T21:16:22.171Z,9.25
2022-10-12T21:18:53.640Z,9.30
2022-10-12T21:21:21.315Z,9.23
2022-10-12T21:23:54.912Z,9.30
2022-10-12T21:26:27.333Z,9.29
2022-10-12T21:28:55.456Z,9.27
2022-10-12T21:31:28.204Z,9.37
2022-10-12T21:34:03.612Z,9.37
2022-10-12T21:36:32.816Z,9.23
2022-10-12T21:39:00.301Z,9.47
2022-10-12T21:41:29.213Z,9.36
2022-10-12T21:43:57.755Z,9.36
2022-10-12T21:46:30.553Z,9.31
2022-10-12T21:49:00.168Z,9.24
2022-10-12T21:51:31.691Z,9.28
2022-10-12T21:53:59.227Z,9.21
2022-10-12T21:56:29.209Z,9.17
2022-10-12T21:58:59.032Z,9.03
2022-10-12T22:01:34.619Z,9.13
2022-10-12T22:04:05.539Z,9.08
2022-10-12T22:06:34.550Z,9.08
2022-10-12T22:09:08.651Z,8.99
2022-10-12T22:11:37.361Z,9.00
2022-10-12T22:14:12.801Z,8.98
2022-10-12T22:16:40.573Z,8.99
2022-10-12T22:19:08.810Z,8.99
2022-10-12T22:21:36.700Z,9.01
2022-10-12T22:24:04.318Z,9.02
2022-10-12T22:26:32.307Z,9.11
2022-10-12T22:29:03.843Z,9.09
2022-10-12T22:31:31.482Z,9.09
2022-10-12T22:33:59.138Z,9.02
2022-10-12T22:36:28.939Z,9.11
2022-10-12T22:38:56.504Z,9.05
2022-10-12T22:41:24.601Z,9.03
2022-10-12T22:43:55.464Z,9.06
2022-10-12T22:46:25.111Z,9.08
2022-10-12T22:48:53.717Z,9.07
2022-10-12T22:51:33.157Z,9.08
2022-10-12T22:54:01.350Z,9.01
2022-10-12T22:56:29.942Z,9.09
2022-10-12T22:59:02.938Z,9.09
2022-10-12T23:01:30.652Z,9.04
2022-10-12T23:03:58.102Z,9.04
2022-10-12T23:06:26.117Z,9.03
2022-10-12T23:08:54.038Z,9.03
2022-10-12T23:11:25.042Z,9.05
2022-10-12T23:13:53.458Z,9.00
2022-10-12T23:16:23.803Z,8.95
2022-10-12T23:19:04.840Z,8.98
2022-10-12T23:21:33.943Z,8.95
2022-10-12T23:24:05.082Z,8.84
2022-10-12T23:26:33.628Z,8.95
2022-10-12T23:29:01.033Z,8.99
2022-10-12T23:31:30.697Z,9.11
2022-10-12T23:34:00.545Z,9.08
2022-10-12T23:36:28.455Z,9.13
2022-10-12T23:38:56.605Z,9.12
2022-10-12T23:41:24.699Z,9.15
2022-10-12T23:43:52.155Z,9.13
2022-10-12T23:46:19.680Z,9.21
2022-10-12T23:48:47.118Z,9.27
2022-10-12T23:51:14.603Z,9.24
2022-10-12T23:53:42.632Z,9.22
2022-10-12T23:56:10.475Z,9.26
2022-10-12T23:58:38.571Z,9.26
